sensor_id;sensor_type;location;lat;lon;timestamp;P1;durP1;ratioP1;P2;durP2;ratioP2
60831;SDS011;46665;51.558;-0.448;2023-02-13T00:01:25;6.57;;;3.85;;
60831;SDS011;46665;51.558;-0.448;2023-02-13T00:04:09;8.18;;;5.05;;
60831;SDS011;46665;51.558;-0.448;2023-02-13T00:06:53;8.95;;;5.45;;
60831;SDS011;46665;51.558;-0.448;2023-02-13T00:09:37;14.85;;;5.88;;
60831;SDS011;46665;51.558;-0.448;2023-02-13T00:12:22;7.32;;;4.97;;
60831;SDS011;46665;51.558;-0.448;2023-02-13T00:15:06;8.15;;;4.38;;
60831;SDS011;46665;51.558;-0.448;2023-02-13T00:17:51;9.13;;;4.70;;
60831;SDS011;46665;51.558;-0.448;2023-02-13T00:20:35;11.02;;;5.43;;
60831;SDS011;46665;51.558;-0.448;2023-02-13T00:23:19;9.52;;;5.75;;
60831;SDS011;46665;51.558;-0.448;2023-02-13T00:26:07;10.70;;;5.55;;
60831;SDS011;46665;51.558;-0.448;2023-02-13T00:28:53;12.27;;;5.18;;
60831;SDS011;46665;51.558;-0.448;2023-02-13T00:31:39;8.82;;;5.15;;
60831;SDS011;46665;51.558;-0.448;2023-02-13T00:34:23;12.52;;;6.25;;
60831;SDS011;46665;51.558;-0.448;2023-02-13T00:37:07;12.70;;;5.60;;
60831;SDS011;46665;51.558;-0.448;2023-02-13T00:39:51;9.38;;;5.13;;
60831;SDS011;46665;51.558;-0.448;2023-02-13T00:42:36;7.82;;;5.25;;
60831;SDS011;46665;51.558;-0.448;2023-02-13T00:45:19;13.98;;;5.93;;
60831;SDS011;46665;51.558;-0.448;2023-02-13T00:48:04;15.57;;;6.50;;
60831;SDS011;46665;51.558;-0.448;2023-02-13T00:50:48;13.23;;;6.30;;
60831;SDS011;46665;51.558;-0.448;2023-02-13T00:53:32;11.43;;;5.20;;
60831;SDS011;46665;51.558;-0.448;2023-02-13T00:56:17;14.23;;;4.97;;
60831;SDS011;46665;51.558;-0.448;2023-02-13T00:59:01;11.43;;;5.47;;
60831;SDS011;46665;51.558;-0.448;2023-02-13T01:01:45;10.95;;;5.85;;
60831;SDS011;46665;51.558;-0.448;2023-02-13T01:04:29;14.10;;;6.50;;
60831;SDS011;46665;51.558;-0.448;2023-02-13T01:07:13;10.18;;;5.60;;
60831;SDS011;46665;51.558;-0.448;2023-02-13T01:09:57;8.60;;;5.60;;
60831;SDS011;46665;51.558;-0.448;2023-02-13T01:12:40;10.18;;;5.75;;
60831;SDS011;46665;51.558;-0.448;2023-02-13T01:15:24;11.50;;;5.40;;
60831;SDS011;46665;51.558;-0.448;2023-02-13T01:18:09;12.00;;;5.55;;
60831;SDS011;46665;51.558;-0.448;2023-02-13T01:20:57;13.43;;;6.07;;
60831;SDS011;46665;51.558;-0.448;2023-02-13T01:23:43;12.50;;;5.72;;
60831;SDS011;46665;51.558;-0.448;2023-02-13T01:26:28;11.35;;;5.93;;
60831;SDS011;46665;51.558;-0.448;2023-02-13T01:29:12;9.30;;;5.45;;
60831;SDS011;46665;51.558;-0.448;2023-02-13T01:31:57;9.55;;;5.93;;
60831;SDS011;46665;51.558;-0.448;2023-02-13T01:34:41;10.95;;;6.28;;
60831;SDS011;46665;51.558;-0.448;2023-02-13T01:37:24;12.68;;;6.00;;
60831;SDS011;46665;51.558;-0.448;2023-02-13T01:40:12;14.15;;;6.38;;
60831;SDS011;46665;51.558;-0.448;2023-02-13T01:42:57;11.50;;;6.35;;
60831;SDS011;46665;51.558;-0.448;2023-02-13T01:45:42;12.10;;;6.03;;
60831;SDS011;46665;51.558;-0.448;2023-02-13T01:48:28;11.75;;;6.70;;
60831;SDS011;46665;51.558;-0.448;2023-02-13T01:51:15;12.45;;;5.95;;
60831;SDS011;46665;51.558;-0.448;2023-02-13T01:54:13;13.13;;;5.75;;
60831;SDS011;46665;51.558;-0.448;2023-02-13T01:57:02;13.52;;;7.30;;
60831;SDS011;46665;51.558;-0.448;2023-02-13T01:59:58;10.40;;;6.05;;
60831;SDS011;46665;51.558;-0.448;2023-02-13T02:02:50;15.02;;;7.20;;
60831;SDS011;46665;51.558;-0.448;2023-02-13T02:05:41;12.85;;;6.72;;
60831;SDS011;46665;51.558;-0.448;2023-02-13T02:08:25;19.15;;;5.97;;
60831;SDS011;46665;51.558;-0.448;2023-02-13T02:11:16;11.10;;;6.05;;
60831;SDS011;46665;51.558;-0.448;2023-02-13T02:14:07;13.93;;;6.60;;
60831;SDS011;46665;51.558;-0.448;2023-02-13T02:16:52;13.57;;;6.75;;
60831;SDS011;46665;51.558;-0.448;2023-02-13T02:39:01;11.77;;;6.35;;
60831;SDS011;46665;51.558;-0.448;2023-02-13T02:45:24;7.70;;;5.63;;
60831;SDS011;46665;51.558;-0.448;2023-02-13T02:52:02;11.85;;;5.93;;
60831;SDS011;46665;51.558;-0.448;2023-02-13T02:54:59;11.18;;;5.13;;
60831;SDS011;46665;51.558;-0.448;2023-02-13T02:57:54;11.10;;;5.38;;
60831;SDS011;46665;51.558;-0.448;2023-02-13T03:01:10;6.68;;;4.47;;
60831;SDS011;46665;51.558;-0.448;2023-02-13T03:04:27;7.97;;;5.28;;
60831;SDS011;46665;51.558;-0.448;2023-02-13T03:07:35;9.65;;;5.47;;
60831;SDS011;46665;51.558;-0.448;2023-02-13T03:10:24;7.93;;;4.38;;
60831;SDS011;46665;51.558;-0.448;2023-02-13T03:13:38;10.07;;;5.28;;
60831;SDS011;46665;51.558;-0.448;2023-02-13T03:16:27;8.80;;;5.07;;
60831;SDS011;46665;51.558;-0.448;2023-02-13T03:22:57;7.22;;;4.88;;
60831;SDS011;46665;51.558;-0.448;2023-02-13T03:29:19;9.02;;;5.20;;
60831;SDS011;46665;51.558;-0.448;2023-02-13T03:39:13;8.75;;;5.57;;
60831;SDS011;46665;51.558;-0.448;2023-02-13T03:42:07;9.35;;;5.50;;
60831;SDS011;46665;51.558;-0.448;2023-02-13T03:44:55;12.13;;;6.60;;
60831;SDS011;46665;51.558;-0.448;2023-02-13T03:48:13;11.23;;;5.47;;
60831;SDS011;46665;51.558;-0.448;2023-02-13T03:51:21;11.40;;;6.20;;
60831;SDS011;46665;51.558;-0.448;2023-02-13T03:54:20;10.70;;;6.15;;
60831;SDS011;46665;51.558;-0.448;2023-02-13T03:57:30;11.52;;;6.32;;
60831;SDS011;46665;51.558;-0.448;2023-02-13T04:00:42;10.75;;;6.20;;
60831;SDS011;46665;51.558;-0.448;2023-02-13T04:03:51;10.48;;;6.00;;
60831;SDS011;46665;51.558;-0.448;2023-02-13T04:06:49;7.75;;;5.07;;
60831;SDS011;46665;51.558;-0.448;2023-02-13T04:09:39;14.93;;;6.22;;
60831;SDS011;46665;51.558;-0.448;2023-02-13T04:12:30;13.00;;;6.25;;
60831;SDS011;46665;51.558;-0.448;2023-02-13T04:15:47;9.75;;;4.70;;
60831;SDS011;46665;51.558;-0.448;2023-02-13T04:18:36;9.10;;;5.22;;
60831;SDS011;46665;51.558;-0.448;2023-02-13T04:21:22;10.05;;;5.75;;
60831;SDS011;46665;51.558;-0.448;2023-02-13T04:24:07;11.10;;;5.55;;
60831;SDS011;46665;51.558;-0.448;2023-02-13T04:26:52;9.77;;;5.72;;
60831;SDS011;46665;51.558;-0.448;2023-02-13T04:29:37;11.07;;;6.40;;
60831;SDS011;46665;51.558;-0.448;2023-02-13T04:32:21;16.20;;;6.95;;
60831;SDS011;46665;51.558;-0.448;2023-02-13T04:35:05;10.30;;;5.72;;
60831;SDS011;46665;51.558;-0.448;2023-02-13T04:37:49;9.07;;;6.07;;
60831;SDS011;46665;51.558;-0.448;2023-02-13T04:40:33;10.25;;;6.35;;
60831;SDS011;46665;51.558;-0.448;2023-02-13T04:43:17;7.03;;;5.03;;
60831;SDS011;46665;51.558;-0.448;2023-02-13T04:46:01;14.07;;;6.18;;
60831;SDS011;46665;51.558;-0.448;2023-02-13T04:48:46;18.55;;;6.60;;
60831;SDS011;46665;51.558;-0.448;2023-02-13T04:51:30;17.13;;;7.45;;
60831;SDS011;46665;51.558;-0.448;2023-02-13T04:54:13;8.40;;;5.28;;
60831;SDS011;46665;51.558;-0.448;2023-02-13T04:56:57;14.93;;;8.35;;
60831;SDS011;46665;51.558;-0.448;2023-02-13T04:59:41;14.95;;;6.88;;
60831;SDS011;46665;51.558;-0.448;2023-02-13T05:02:25;17.60;;;7.47;;
60831;SDS011;46665;51.558;-0.448;2023-02-13T05:05:09;13.52;;;6.25;;
60831;SDS011;46665;51.558;-0.448;2023-02-13T05:07:53;16.08;;;7.43;;
60831;SDS011;46665;51.558;-0.448;2023-02-13T05:10:37;13.73;;;6.75;;
60831;SDS011;46665;51.558;-0.448;2023-02-13T05:13:21;18.75;;;7.03;;
60831;SDS011;46665;51.558;-0.448;2023-02-13T05:16:05;18.58;;;8.05;;
60831;SDS011;46665;51.558;-0.448;2023-02-13T05:18:49;11.82;;;6.50;;
60831;SDS011;46665;51.558;-0.448;2023-02-13T05:21:37;12.68;;;6.93;;
60831;SDS011;46665;51.558;-0.448;2023-02-13T05:24:40;22.92;;;7.90;;
60831;SDS011;46665;51.558;-0.448;2023-02-13T05:27:24;13.95;;;6.95;;
60831;SDS011;46665;51.558;-0.448;2023-02-13T05:30:08;19.45;;;7.75;;
60831;SDS011;46665;51.558;-0.448;2023-02-13T05:32:52;15.75;;;8.50;;
60831;SDS011;46665;51.558;-0.448;2023-02-13T05:35:37;18.45;;;8.65;;
60831;SDS011;46665;51.558;-0.448;2023-02-13T05:38:21;15.48;;;8.80;;
60831;SDS011;46665;51.558;-0.448;2023-02-13T05:41:05;16.25;;;8.18;;
60831;SDS011;46665;51.558;-0.448;2023-02-13T05:43:49;20.75;;;9.18;;
60831;SDS011;46665;51.558;-0.448;2023-02-13T05:46:33;20.23;;;10.38;;
60831;SDS011;46665;51.558;-0.448;2023-02-13T05:49:18;16.08;;;8.95;;
60831;SDS011;46665;51.558;-0.448;2023-02-13T05:52:02;25.35;;;9.95;;
60831;SDS011;46665;51.558;-0.448;2023-02-13T05:54:45;22.00;;;10.82;;
60831;SDS011;46665;51.558;-0.448;2023-02-13T05:57:29;30.30;;;11.07;;
60831;SDS011;46665;51.558;-0.448;2023-02-13T06:00:14;23.80;;;10.15;;
60831;SDS011;46665;51.558;-0.448;2023-02-13T06:02:58;18.48;;;9.80;;
60831;SDS011;46665;51.558;-0.448;2023-02-13T06:05:42;20.20;;;11.65;;
60831;SDS011;46665;51.558;-0.448;2023-02-13T06:08:27;23.30;;;10.35;;
60831;SDS011;46665;51.558;-0.448;2023-02-13T06:11:11;19.45;;;9.80;;
60831;SDS011;46665;51.558;-0.448;2023-02-13T06:13:55;23.08;;;9.85;;
60831;SDS011;46665;51.558;-0.448;2023-02-13T06:16:39;22.10;;;10.35;;
60831;SDS011;46665;51.558;-0.448;2023-02-13T06:19:23;18.13;;;8.45;;
60831;SDS011;46665;51.558;-0.448;2023-02-13T06:22:07;23.70;;;11.35;;
60831;SDS011;46665;51.558;-0.448;2023-02-13T06:24:51;24.15;;;12.20;;
60831;SDS011;46665;51.558;-0.448;2023-02-13T06:27:35;30.45;;;11.35;;
60831;SDS011;46665;51.558;-0.448;2023-02-13T06:30:19;22.83;;;11.48;;
60831;SDS011;46665;51.558;-0.448;2023-02-13T06:33:04;31.75;;;11.68;;
60831;SDS011;46665;51.558;-0.448;2023-02-13T06:35:47;33.10;;;12.52;;
60831;SDS011;46665;51.558;-0.448;2023-02-13T06:38:31;21.38;;;9.32;;
60831;SDS011;46665;51.558;-0.448;2023-02-13T06:41:15;28.00;;;12.10;;
60831;SDS011;46665;51.558;-0.448;2023-02-13T06:43:59;30.02;;;10.73;;
60831;SDS011;46665;51.558;-0.448;2023-02-13T06:46:43;18.75;;;10.25;;
60831;SDS011;46665;51.558;-0.448;2023-02-13T06:49:27;24.20;;;11.32;;
60831;SDS011;46665;51.558;-0.448;2023-02-13T06:52:11;27.02;;;12.88;;
60831;SDS011;46665;51.558;-0.448;2023-02-13T06:54:55;24.88;;;11.60;;
60831;SDS011;46665;51.558;-0.448;2023-02-13T06:57:39;23.45;;;11.07;;
60831;SDS011;46665;51.558;-0.448;2023-02-13T07:00:24;23.88;;;10.07;;
60831;SDS011;46665;51.558;-0.448;2023-02-13T07:03:09;25.40;;;10.52;;
60831;SDS011;46665;51.558;-0.448;2023-02-13T07:05:54;21.60;;;11.10;;
60831;SDS011;46665;51.558;-0.448;2023-02-13T07:08:39;28.60;;;11.15;;
60831;SDS011;46665;51.558;-0.448;2023-02-13T07:11:23;22.77;;;10.90;;
60831;SDS011;46665;51.558;-0.448;2023-02-13T07:14:08;24.30;;;11.40;;
60831;SDS011;46665;51.558;-0.448;2023-02-13T07:16:52;21.85;;;9.98;;
60831;SDS011;46665;51.558;-0.448;2023-02-13T07:19:36;30.27;;;11.75;;
60831;SDS011;46665;51.558;-0.448;2023-02-13T07:22:20;22.75;;;9.38;;
60831;SDS011;46665;51.558;-0.448;2023-02-13T07:25:04;28.38;;;12.63;;
60831;SDS011;46665;51.558;-0.448;2023-02-13T07:27:49;20.80;;;11.10;;
60831;SDS011;46665;51.558;-0.448;2023-02-13T07:30:33;28.70;;;11.35;;
60831;SDS011;46665;51.558;-0.448;2023-02-13T07:33:18;27.10;;;11.38;;
60831;SDS011;46665;51.558;-0.448;2023-02-13T07:36:02;25.85;;;9.77;;
60831;SDS011;46665;51.558;-0.448;2023-02-13T07:38:46;28.20;;;11.57;;
60831;SDS011;46665;51.558;-0.448;2023-02-13T07:41:30;22.27;;;11.30;;
60831;SDS011;46665;51.558;-0.448;2023-02-13T07:44:14;34.55;;;12.30;;
60831;SDS011;46665;51.558;-0.448;2023-02-13T07:46:58;26.27;;;10.75;;
60831;SDS011;46665;51.558;-0.448;2023-02-13T07:49:43;25.67;;;10.82;;
60831;SDS011;46665;51.558;-0.448;2023-02-13T07:52:27;26.58;;;10.27;;
60831;SDS011;46665;51.558;-0.448;2023-02-13T07:55:11;27.10;;;10.95;;
60831;SDS011;46665;51.558;-0.448;2023-02-13T07:57:55;22.05;;;11.13;;
60831;SDS011;46665;51.558;-0.448;2023-02-13T08:00:40;34.85;;;12.18;;
60831;SDS011;46665;51.558;-0.448;2023-02-13T08:03:23;27.20;;;11.02;;
60831;SDS011;46665;51.558;-0.448;2023-02-13T08:06:07;28.55;;;10.40;;
60831;SDS011;46665;51.558;-0.448;2023-02-13T08:08:52;26.80;;;11.27;;
60831;SDS011;46665;51.558;-0.448;2023-02-13T08:11:56;32.08;;;11.05;;
60831;SDS011;46665;51.558;-0.448;2023-02-13T08:14:41;26.48;;;11.38;;
60831;SDS011;46665;51.558;-0.448;2023-02-13T08:17:25;30.85;;;11.95;;
60831;SDS011;46665;51.558;-0.448;2023-02-13T08:20:09;23.23;;;10.27;;
60831;SDS011;46665;51.558;-0.448;2023-02-13T08:22:53;24.80;;;10.55;;
60831;SDS011;46665;51.558;-0.448;2023-02-13T08:25:37;19.80;;;10.60;;
60831;SDS011;46665;51.558;-0.448;2023-02-13T08:28:22;22.17;;;9.52;;
60831;SDS011;46665;51.558;-0.448;2023-02-13T08:31:09;25.60;;;11.30;;
60831;SDS011;46665;51.558;-0.448;2023-02-13T08:33:55;29.15;;;11.15;;
60831;SDS011;46665;51.558;-0.448;2023-02-13T08:36:40;24.02;;;12.00;;
60831;SDS011;46665;51.558;-0.448;2023-02-13T08:39:24;24.25;;;10.18;;
60831;SDS011;46665;51.558;-0.448;2023-02-13T08:42:08;22.92;;;10.90;;
60831;SDS011;46665;51.558;-0.448;2023-02-13T08:44:52;32.17;;;12.43;;
60831;SDS011;46665;51.558;-0.448;2023-02-13T08:47:36;21.85;;;9.95;;
60831;SDS011;46665;51.558;-0.448;2023-02-13T08:50:22;24.67;;;10.48;;
60831;SDS011;46665;51.558;-0.448;2023-02-13T08:53:06;23.33;;;11.18;;
60831;SDS011;46665;51.558;-0.448;2023-02-13T08:55:50;22.42;;;9.82;;
60831;SDS011;46665;51.558;-0.448;2023-02-13T08:58:38;25.05;;;10.07;;
60831;SDS011;46665;51.558;-0.448;2023-02-13T09:01:22;21.05;;;10.07;;
60831;SDS011;46665;51.558;-0.448;2023-02-13T09:04:06;15.30;;;8.73;;
60831;SDS011;46665;51.558;-0.448;2023-02-13T09:06:50;26.23;;;9.88;;
60831;SDS011;46665;51.558;-0.448;2023-02-13T09:09:34;17.10;;;7.93;;
60831;SDS011;46665;51.558;-0.448;2023-02-13T09:12:18;24.35;;;9.18;;
60831;SDS011;46665;51.558;-0.448;2023-02-13T09:15:03;22.90;;;9.65;;
60831;SDS011;46665;51.558;-0.448;2023-02-13T09:17:48;13.63;;;8.07;;
60831;SDS011;46665;51.558;-0.448;2023-02-13T09:20:32;20.80;;;10.05;;
60831;SDS011;46665;51.558;-0.448;2023-02-13T09:23:17;25.05;;;8.95;;
60831;SDS011;46665;51.558;-0.448;2023-02-13T09:26:01;21.80;;;9.00;;
60831;SDS011;46665;51.558;-0.448;2023-02-13T09:28:50;17.92;;;7.88;;
60831;SDS011;46665;51.558;-0.448;2023-02-13T09:31:34;19.67;;;8.80;;
60831;SDS011;46665;51.558;-0.448;2023-02-13T09:34:18;21.63;;;8.77;;
60831;SDS011;46665;51.558;-0.448;2023-02-13T09:37:02;16.05;;;6.75;;
60831;SDS011;46665;51.558;-0.448;2023-02-13T09:39:46;17.30;;;7.75;;
60831;SDS011;46665;51.558;-0.448;2023-02-13T09:42:30;18.60;;;9.40;;
60831;SDS011;46665;51.558;-0.448;2023-02-13T09:47:54;20.13;;;8.80;;
60831;SDS011;46665;51.558;-0.448;2023-02-13T09:50:39;16.05;;;8.40;;
60831;SDS011;46665;51.558;-0.448;2023-02-13T09:53:23;11.23;;;7.07;;
60831;SDS011;46665;51.558;-0.448;2023-02-13T09:56:22;13.57;;;7.57;;
60831;SDS011;46665;51.558;-0.448;2023-02-13T10:02:45;14.90;;;7.15;;
60831;SDS011;46665;51.558;-0.448;2023-02-13T10:05:47;12.02;;;7.10;;
60831;SDS011;46665;51.558;-0.448;2023-02-13T10:12:00;14.18;;;6.63;;
60831;SDS011;46665;51.558;-0.448;2023-02-13T10:18:11;17.77;;;8.05;;
60831;SDS011;46665;51.558;-0.448;2023-02-13T10:20:59;23.55;;;7.43;;
60831;SDS011;46665;51.558;-0.448;2023-02-13T10:23:47;14.05;;;7.43;;
60831;SDS011;46665;51.558;-0.448;2023-02-13T10:26:39;12.93;;;6.93;;
60831;SDS011;46665;51.558;-0.448;2023-02-13T10:38:56;14.23;;;6.13;;
60831;SDS011;46665;51.558;-0.448;2023-02-13T10:41:54;21.98;;;8.23;;
60831;SDS011;46665;51.558;-0.448;2023-02-13T10:51:12;19.50;;;8.80;;
60831;SDS011;46665;51.558;-0.448;2023-02-13T10:57:28;14.65;;;7.05;;
60831;SDS011;46665;51.558;-0.448;2023-02-13T11:00:34;19.75;;;7.55;;
60831;SDS011;46665;51.558;-0.448;2023-02-13T11:03:25;14.63;;;7.43;;
60831;SDS011;46665;51.558;-0.448;2023-02-13T11:06:11;11.40;;;5.82;;
60831;SDS011;46665;51.558;-0.448;2023-02-13T11:08:59;19.17;;;7.93;;
60831;SDS011;46665;51.558;-0.448;2023-02-13T11:11:43;13.48;;;7.78;;
60831;SDS011;46665;51.558;-0.448;2023-02-13T11:14:27;18.25;;;7.65;;
60831;SDS011;46665;51.558;-0.448;2023-02-13T11:17:11;16.02;;;7.20;;
60831;SDS011;46665;51.558;-0.448;2023-02-13T11:20:36;13.70;;;6.65;;
60831;SDS011;46665;51.558;-0.448;2023-02-13T11:26:14;12.77;;;6.70;;
60831;SDS011;46665;51.558;-0.448;2023-02-13T11:29:15;15.18;;;6.45;;
60831;SDS011;46665;51.558;-0.448;2023-02-13T11:34:57;17.45;;;7.30;;
60831;SDS011;46665;51.558;-0.448;2023-02-13T11:41:09;15.65;;;7.63;;
60831;SDS011;46665;51.558;-0.448;2023-02-13T11:44:00;19.88;;;7.03;;
60831;SDS011;46665;51.558;-0.448;2023-02-13T11:46:47;17.33;;;7.05;;
60831;SDS011;46665;51.558;-0.448;2023-02-13T11:49:34;18.20;;;7.78;;
60831;SDS011;46665;51.558;-0.448;2023-02-13T11:55:24;18.48;;;8.18;;
60831;SDS011;46665;51.558;-0.448;2023-02-13T12:04:06;15.52;;;8.40;;
60831;SDS011;46665;51.558;-0.448;2023-02-13T12:07:01;26.02;;;8.68;;
60831;SDS011;46665;51.558;-0.448;2023-02-13T12:10:00;15.65;;;7.15;;
60831;SDS011;46665;51.558;-0.448;2023-02-13T12:13:13;12.55;;;7.07;;
60831;SDS011;46665;51.558;-0.448;2023-02-13T12:16:07;9.90;;;6.68;;
60831;SDS011;46665;51.558;-0.448;2023-02-13T12:19:18;16.60;;;7.10;;
60831;SDS011;46665;51.558;-0.448;2023-02-13T12:28:22;14.88;;;7.00;;
60831;SDS011;46665;51.558;-0.448;2023-02-13T12:31:32;12.32;;;6.95;;
60831;SDS011;46665;51.558;-0.448;2023-02-13T12:34:42;12.40;;;5.63;;
60831;SDS011;46665;51.558;-0.448;2023-02-13T12:43:33;10.80;;;5.28;;
60831;SDS011;46665;51.558;-0.448;2023-02-13T13:13:27;7.82;;;5.00;;
60831;SDS011;46665;51.558;-0.448;2023-02-13T13:19:05;8.10;;;5.05;;
60831;SDS011;46665;51.558;-0.448;2023-02-13T13:25:19;14.00;;;5.25;;
60831;SDS011;46665;51.558;-0.448;2023-02-13T13:28:31;5.82;;;4.35;;
60831;SDS011;46665;51.558;-0.448;2023-02-13T13:31:16;7.60;;;5.53;;
60831;SDS011;46665;51.558;-0.448;2023-02-13T13:34:03;15.45;;;6.22;;
60831;SDS011;46665;51.558;-0.448;2023-02-13T13:36:56;16.95;;;5.28;;
60831;SDS011;46665;51.558;-0.448;2023-02-13T13:42:53;11.80;;;4.75;;
60831;SDS011;46665;51.558;-0.448;2023-02-13T13:45:59;9.45;;;5.03;;
60831;SDS011;46665;51.558;-0.448;2023-02-13T13:48:53;11.10;;;5.45;;
60831;SDS011;46665;51.558;-0.448;2023-02-13T13:51:39;13.98;;;6.22;;
60831;SDS011;46665;51.558;-0.448;2023-02-13T13:54:34;7.05;;;5.72;;
60831;SDS011;46665;51.558;-0.448;2023-02-13T13:57:19;8.32;;;5.22;;
60831;SDS011;46665;51.558;-0.448;2023-02-13T14:05:55;10.73;;;5.30;;
60831;SDS011;46665;51.558;-0.448;2023-02-13T14:11:39;6.65;;;5.32;;
60831;SDS011;46665;51.558;-0.448;2023-02-13T14:17:12;8.45;;;4.90;;
60831;SDS011;46665;51.558;-0.448;2023-02-13T14:19:58;9.30;;;5.80;;
60831;SDS011;46665;51.558;-0.448;2023-02-13T14:22:42;11.77;;;5.88;;
60831;SDS011;46665;51.558;-0.448;2023-02-13T14:25:27;9.13;;;5.00;;
60831;SDS011;46665;51.558;-0.448;2023-02-13T14:28:19;16.05;;;6.10;;
60831;SDS011;46665;51.558;-0.448;2023-02-13T14:37:06;9.15;;;6.05;;
60831;SDS011;46665;51.558;-0.448;2023-02-13T14:43:06;8.70;;;5.43;;
60831;SDS011;46665;51.558;-0.448;2023-02-13T14:46:33;7.63;;;4.53;;
60831;SDS011;46665;51.558;-0.448;2023-02-13T14:49:34;9.63;;;5.55;;
60831;SDS011;46665;51.558;-0.448;2023-02-13T14:52:24;12.00;;;6.05;;
60831;SDS011;46665;51.558;-0.448;2023-02-13T14:58:21;7.88;;;5.18;;
60831;SDS011;46665;51.558;-0.448;2023-02-13T15:04:29;12.80;;;5.50;;
60831;SDS011;46665;51.558;-0.448;2023-02-13T15:07:22;13.45;;;5.45;;
60831;SDS011;46665;51.558;-0.448;2023-02-13T15:13:16;8.30;;;4.72;;
60831;SDS011;46665;51.558;-0.448;2023-02-13T15:16:11;13.23;;;6.38;;
60831;SDS011;46665;51.558;-0.448;2023-02-13T15:18:57;7.43;;;5.22;;
60831;SDS011;46665;51.558;-0.448;2023-02-13T15:21:49;9.48;;;5.40;;
60831;SDS011;46665;51.558;-0.448;2023-02-13T15:24:44;9.95;;;5.43;;
60831;SDS011;46665;51.558;-0.448;2023-02-13T15:27:31;11.77;;;5.15;;
60831;SDS011;46665;51.558;-0.448;2023-02-13T15:30:22;9.32;;;6.15;;
60831;SDS011;46665;51.558;-0.448;2023-02-13T15:33:15;9.45;;;5.22;;
60831;SDS011;46665;51.558;-0.448;2023-02-13T15:36:03;9.38;;;5.63;;
60831;SDS011;46665;51.558;-0.448;2023-02-13T15:38:56;8.88;;;4.43;;
60831;SDS011;46665;51.558;-0.448;2023-02-13T15:41:51;6.88;;;4.57;;
60831;SDS011;46665;51.558;-0.448;2023-02-13T15:44:37;8.25;;;4.80;;
60831;SDS011;46665;51.558;-0.448;2023-02-13T15:47:27;8.07;;;4.63;;
60831;SDS011;46665;51.558;-0.448;2023-02-13T15:50:26;6.53;;;4.47;;
60831;SDS011;46665;51.558;-0.448;2023-02-13T15:53:13;13.35;;;6.88;;
60831;SDS011;46665;51.558;-0.448;2023-02-13T15:56:02;9.82;;;5.10;;
60831;SDS011;46665;51.558;-0.448;2023-02-13T15:58:48;8.98;;;4.63;;
60831;SDS011;46665;51.558;-0.448;2023-02-13T16:01:33;10.35;;;4.88;;
60831;SDS011;46665;51.558;-0.448;2023-02-13T16:04:17;7.45;;;4.47;;
60831;SDS011;46665;51.558;-0.448;2023-02-13T16:07:05;8.23;;;4.63;;
60831;SDS011;46665;51.558;-0.448;2023-02-13T16:13:15;5.22;;;3.67;;
60831;SDS011;46665;51.558;-0.448;2023-02-13T16:16:02;7.72;;;4.03;;
60831;SDS011;46665;51.558;-0.448;2023-02-13T16:18:52;17.85;;;4.45;;
60831;SDS011;46665;51.558;-0.448;2023-02-13T16:21:36;10.13;;;4.32;;
60831;SDS011;46665;51.558;-0.448;2023-02-13T16:24:23;6.43;;;4.30;;
60831;SDS011;46665;51.558;-0.448;2023-02-13T16:27:12;7.22;;;3.78;;
60831;SDS011;46665;51.558;-0.448;2023-02-13T16:30:00;8.13;;;3.42;;
60831;SDS011;46665;51.558;-0.448;2023-02-13T16:32:47;6.10;;;3.60;;
60831;SDS011;46665;51.558;-0.448;2023-02-13T16:35:31;5.03;;;3.95;;
60831;SDS011;46665;51.558;-0.448;2023-02-13T16:44:05;6.30;;;3.88;;
60831;SDS011;46665;51.558;-0.448;2023-02-13T16:47:19;4.03;;;3.42;;
60831;SDS011;46665;51.558;-0.448;2023-02-13T16:50:11;8.13;;;3.55;;
60831;SDS011;46665;51.558;-0.448;2023-02-13T16:53:01;6.35;;;3.50;;
60831;SDS011;46665;51.558;-0.448;2023-02-13T16:55:45;5.35;;;3.40;;
60831;SDS011;46665;51.558;-0.448;2023-02-13T16:58:30;7.82;;;4.05;;
60831;SDS011;46665;51.558;-0.448;2023-02-13T17:01:15;7.03;;;4.00;;
60831;SDS011;46665;51.558;-0.448;2023-02-13T17:04:00;26.52;;;4.57;;
60831;SDS011;46665;51.558;-0.448;2023-02-13T17:06:44;5.53;;;3.67;;
60831;SDS011;46665;51.558;-0.448;2023-02-13T17:09:28;10.00;;;3.95;;
60831;SDS011;46665;51.558;-0.448;2023-02-13T17:12:13;10.90;;;4.68;;
60831;SDS011;46665;51.558;-0.448;2023-02-13T17:15:01;8.70;;;4.15;;
60831;SDS011;46665;51.558;-0.448;2023-02-13T17:17:45;4.93;;;2.97;;
60831;SDS011;46665;51.558;-0.448;2023-02-13T17:20:31;7.82;;;4.25;;
60831;SDS011;46665;51.558;-0.448;2023-02-13T17:23:17;12.07;;;4.38;;
60831;SDS011;46665;51.558;-0.448;2023-02-13T17:26:04;6.82;;;4.20;;
60831;SDS011;46665;51.558;-0.448;2023-02-13T17:28:48;6.93;;;4.32;;
60831;SDS011;46665;51.558;-0.448;2023-02-13T17:31:32;10.93;;;4.07;;
60831;SDS011;46665;51.558;-0.448;2023-02-13T17:34:16;6.82;;;4.32;;
60831;SDS011;46665;51.558;-0.448;2023-02-13T17:37:00;8.30;;;4.18;;
60831;SDS011;46665;51.558;-0.448;2023-02-13T17:39:44;6.07;;;3.55;;
60831;SDS011;46665;51.558;-0.448;2023-02-13T17:42:29;3.97;;;3.10;;
60831;SDS011;46665;51.558;-0.448;2023-02-13T17:45:14;8.40;;;4.38;;
60831;SDS011;46665;51.558;-0.448;2023-02-13T17:47:59;19.45;;;5.05;;
60831;SDS011;46665;51.558;-0.448;2023-02-13T17:50:44;3.95;;;3.25;;
60831;SDS011;46665;51.558;-0.448;2023-02-13T17:53:30;3.67;;;3.35;;
60831;SDS011;46665;51.558;-0.448;2023-02-13T17:56:14;9.68;;;4.00;;
60831;SDS011;46665;51.558;-0.448;2023-02-13T17:58:58;8.77;;;3.92;;
60831;SDS011;46665;51.558;-0.448;2023-02-13T18:01:42;5.80;;;3.75;;
60831;SDS011;46665;51.558;-0.448;2023-02-13T18:04:26;9.10;;;3.53;;
60831;SDS011;46665;51.558;-0.448;2023-02-13T18:07:11;6.63;;;3.80;;
60831;SDS011;46665;51.558;-0.448;2023-02-13T18:09:56;13.70;;;4.45;;
60831;SDS011;46665;51.558;-0.448;2023-02-13T18:12:40;11.02;;;3.47;;
60831;SDS011;46665;51.558;-0.448;2023-02-13T18:15:25;9.13;;;4.95;;
60831;SDS011;46665;51.558;-0.448;2023-02-13T18:18:09;7.10;;;4.07;;
60831;SDS011;46665;51.558;-0.448;2023-02-13T18:20:54;8.38;;;3.78;;
60831;SDS011;46665;51.558;-0.448;2023-02-13T18:23:39;10.63;;;4.43;;
60831;SDS011;46665;51.558;-0.448;2023-02-13T18:26:23;7.07;;;3.75;;
60831;SDS011;46665;51.558;-0.448;2023-02-13T18:29:07;10.10;;;4.75;;
60831;SDS011;46665;51.558;-0.448;2023-02-13T18:31:51;16.73;;;5.43;;
60831;SDS011;46665;51.558;-0.448;2023-02-13T18:34:36;10.07;;;3.85;;
60831;SDS011;46665;51.558;-0.448;2023-02-13T18:37:22;6.10;;;3.78;;
60831;SDS011;46665;51.558;-0.448;2023-02-13T18:40:06;5.88;;;3.65;;
60831;SDS011;46665;51.558;-0.448;2023-02-13T18:42:52;7.95;;;4.47;;
60831;SDS011;46665;51.558;-0.448;2023-02-13T18:45:36;10.02;;;4.78;;
60831;SDS011;46665;51.558;-0.448;2023-02-13T18:48:21;7.68;;;4.75;;
60831;SDS011;46665;51.558;-0.448;2023-02-13T18:51:05;12.13;;;4.55;;
60831;SDS011;46665;51.558;-0.448;2023-02-13T18:53:50;6.43;;;4.18;;
60831;SDS011;46665;51.558;-0.448;2023-02-13T18:56:35;11.93;;;5.50;;
60831;SDS011;46665;51.558;-0.448;2023-02-13T18:59:19;10.68;;;4.53;;
60831;SDS011;46665;51.558;-0.448;2023-02-13T19:02:04;11.50;;;5.05;;
60831;SDS011;46665;51.558;-0.448;2023-02-13T19:04:51;6.72;;;4.28;;
60831;SDS011;46665;51.558;-0.448;2023-02-13T19:07:39;23.50;;;5.03;;
60831;SDS011;46665;51.558;-0.448;2023-02-13T19:10:24;12.02;;;4.55;;
60831;SDS011;46665;51.558;-0.448;2023-02-13T19:13:08;8.80;;;4.78;;
60831;SDS011;46665;51.558;-0.448;2023-02-13T19:15:52;10.15;;;4.63;;
60831;SDS011;46665;51.558;-0.448;2023-02-13T19:18:37;10.63;;;4.82;;
60831;SDS011;46665;51.558;-0.448;2023-02-13T19:21:23;8.27;;;5.50;;
60831;SDS011;46665;51.558;-0.448;2023-02-13T19:24:10;8.23;;;4.75;;